sensor_id;sensor_type;location;lat;lon;timestamp;pressure;altitude;pressure_sealevel;temperature;humidity
21401;BME280;18038;50.166;18.908;2022-10-16T00:00:39;98169.00;;;11.29;69.65
21401;BME280;18038;50.166;18.908;2022-10-16T00:03:47;98178.06;;;11.35;69.49
21401;BME280;18038;50.166;18.908;2022-10-16T00:06:56;98182.63;;;11.41;69.44
21401;BME280;18038;50.166;18.908;2022-10-16T00:10:02;98173.38;;;11.44;69.52
21401;BME280;18038;50.166;18.908;2022-10-16T00:13:07;98178.34;;;11.47;69.46
21401;BME280;18038;50.166;18.908;2022-10-16T00:16:14;98184.59;;;11.54;69.44
21401;BME280;18038;50.166;18.908;2022-10-16T00:19:20;98182.22;;;11.44;69.73
21401;BME280;18038;50.166;18.908;2022-10-16T00:22:29;98177.09;;;11.43;69.47
21401;BME280;18038;50.166;18.908;2022-10-16T00:25:34;98185.88;;;11.37;70.04
21401;BME280;18038;50.166;18.908;2022-10-16T00:28:40;98177.50;;;11.40;69.37
21401;BME280;18038;50.166;18.908;2022-10-16T00:31:47;98180.59;;;11.50;68.91
21401;BME280;18038;50.166;18.908;2022-10-16T00:34:52;98187.38;;;11.46;69.36
21401;BME280;18038;50.166;18.908;2022-10-16T00:38:01;98190.34;;;11.58;69.22
21401;BME280;18038;50.166;18.908;2022-10-16T00:41:09;98188.94;;;11.62;68.56
21401;BME280;18038;50.166;18.908;2022-10-16T00:44:46;98185.63;;;11.60;68.71
21401;BME280;18038;50.166;18.908;2022-10-16T00:47:55;98187.91;;;11.56;68.94
21401;BME280;18038;50.166;18.908;2022-10-16T00:51:02;98187.63;;;11.51;69.03
21401;BME280;18038;50.166;18.908;2022-10-16T00:54:17;98183.28;;;11.50;69.27
21401;BME280;18038;50.166;18.908;2022-10-16T00:57:26;98182.09;;;11.52;69.19
21401;BME280;18038;50.166;18.908;2022-10-16T01:00:32;98178.56;;;11.52;69.16
21401;BME280;18038;50.166;18.908;2022-10-16T01:03:38;98177.91;;;11.43;69.19
21401;BME280;18038;50.166;18.908;2022-10-16T01:06:52;98177.75;;;11.51;68.89
21401;BME280;18038;50.166;18.908;2022-10-16T01:10:20;98178.25;;;11.34;69.30
21401;BME280;18038;50.166;18.908;2022-10-16T01:13:41;98184.88;;;11.38;69.16
21401;BME280;18038;50.166;18.908;2022-10-16T01:16:56;98181.72;;;11.27;69.11
21401;BME280;18038;50.166;18.908;2022-10-16T01:20:11;98186.56;;;11.45;68.54
21401;BME280;18038;50.166;18.908;2022-10-16T01:23:40;98184.66;;;11.39;68.84
21401;BME280;18038;50.166;18.908;2022-10-16T01:27:10;98188.78;;;11.35;68.64
21401;BME280;18038;50.166;18.908;2022-10-16T01:30:22;98186.50;;;11.32;68.87
21401;BME280;18038;50.166;18.908;2022-10-16T01:33:38;98184.81;;;11.31;69.06
21401;BME280;18038;50.166;18.908;2022-10-16T01:36:52;98183.22;;;11.37;68.88
21401;BME280;18038;50.166;18.908;2022-10-16T01:40:06;98176.28;;;11.42;68.67
21401;BME280;18038;50.166;18.908;2022-10-16T01:43:22;98190.97;;;11.25;69.15
21401;BME280;18038;50.166;18.908;2022-10-16T01:46:36;98188.53;;;11.30;68.89
21401;BME280;18038;50.166;18.908;2022-10-16T01:49:46;98192.97;;;11.16;68.65
21401;BME280;18038;50.166;18.908;2022-10-16T01:52:56;98194.59;;;11.17;68.67
21401;BME280;18038;50.166;18.908;2022-10-16T01:56:07;98190.28;;;11.16;69.04
21401;BME280;18038;50.166;18.908;2022-10-16T01:59:22;98187.97;;;11.06;69.01
21401;BME280;18038;50.166;18.908;2022-10-16T02:02:33;98202.78;;;11.09;68.86
21401;BME280;18038;50.166;18.908;2022-10-16T02:05:45;98204.88;;;11.14;68.92
21401;BME280;18038;50.166;18.908;2022-10-16T02:08:51;98212.06;;;11.13;68.61
21401;BME280;18038;50.166;18.908;2022-10-16T02:12:03;98214.25;;;11.03;69.50
21401;BME280;18038;50.166;18.908;2022-10-16T02:15:17;98218.56;;;11.04;69.20
21401;BME280;18038;50.166;18.908;2022-10-16T02:18:23;98223.34;;;11.08;68.72
21401;BME280;18038;50.166;18.908;2022-10-16T02:21:40;98225.81;;;11.10;68.96
21401;BME280;18038;50.166;18.908;2022-10-16T02:24:54;98222.31;;;11.10;68.44
21401;BME280;18038;50.166;18.908;2022-10-16T02:28:08;98231.53;;;11.07;68.84
21401;BME280;18038;50.166;18.908;2022-10-16T02:31:28;98224.94;;;11.03;68.52
21401;BME280;18038;50.166;18.908;2022-10-16T02:34:40;98226.47;;;10.91;69.31
21401;BME280;18038;50.166;18.908;2022-10-16T02:37:49;98214.34;;;10.88;68.85
21401;BME280;18038;50.166;18.908;2022-10-16T02:40:56;98219.25;;;10.84;69.25
21401;BME280;18038;50.166;18.908;2022-10-16T02:44:02;98215.69;;;10.77;69.84
21401;BME280;18038;50.166;18.908;2022-10-16T02:47:10;98215.16;;;10.89;69.31
21401;BME280;18038;50.166;18.908;2022-10-16T02:50:17;98213.66;;;10.79;69.81
21401;BME280;18038;50.166;18.908;2022-10-16T02:53:22;98219.41;;;10.83;69.66
21401;BME280;18038;50.166;18.908;2022-10-16T02:56:28;98220.19;;;10.77;69.70
21401;BME280;18038;50.166;18.908;2022-10-16T02:59:34;98225.78;;;10.82;69.45
21401;BME280;18038;50.166;18.908;2022-10-16T03:02:43;98228.00;;;10.78;69.54
21401;BME280;18038;50.166;18.908;2022-10-16T03:05:50;98229.69;;;10.79;69.89
21401;BME280;18038;50.166;18.908;2022-10-16T03:08:56;98240.94;;;10.75;69.81
21401;BME280;18038;50.166;18.908;2022-10-16T03:12:01;98235.34;;;10.70;70.21
21401;BME280;18038;50.166;18.908;2022-10-16T03:15:08;98238.38;;;10.67;70.09
21401;BME280;18038;50.166;18.908;2022-10-16T03:18:17;98227.84;;;10.58;70.22
21401;BME280;18038;50.166;18.908;2022-10-16T03:21:22;98236.53;;;10.67;70.56
21401;BME280;18038;50.166;18.908;2022-10-16T03:24:28;98233.09;;;10.73;70.39
21401;BME280;18038;50.166;18.908;2022-10-16T03:27:33;98229.69;;;10.58;70.63
21401;BME280;18038;50.166;18.908;2022-10-16T03:30:39;98239.47;;;10.51;71.18
21401;BME280;18038;50.166;18.908;2022-10-16T03:33:47;98239.38;;;10.44;71.82
21401;BME280;18038;50.166;18.908;2022-10-16T03:36:53;98237.78;;;10.28;72.54
21401;BME280;18038;50.166;18.908;2022-10-16T03:39:59;98234.22;;;10.06;73.34
21401;BME280;18038;50.166;18.908;2022-10-16T03:43:06;98248.03;;;9.95;73.96
21401;BME280;18038;50.166;18.908;2022-10-16T03:46:11;98257.69;;;9.96;73.92
21401;BME280;18038;50.166;18.908;2022-10-16T03:49:19;98249.50;;;9.97;73.76
21401;BME280;18038;50.166;18.908;2022-10-16T03:52:26;98249.66;;;10.11;72.98
21401;BME280;18038;50.166;18.908;2022-10-16T03:55:31;98252.88;;;10.21;72.53
21401;BME280;18038;50.166;18.908;2022-10-16T03:58:39;98253.25;;;10.33;72.02
21401;BME280;18038;50.166;18.908;2022-10-16T04:01:45;98255.31;;;10.52;71.08
21401;BME280;18038;50.166;18.908;2022-10-16T04:04:53;98255.25;;;10.67;70.29
21401;BME280;18038;50.166;18.908;2022-10-16T04:07:59;98259.97;;;10.87;69.32
21401;BME280;18038;50.166;18.908;2022-10-16T04:11:05;98262.66;;;10.87;69.69
21401;BME280;18038;50.166;18.908;2022-10-16T04:14:10;98260.19;;;10.92;68.92
21401;BME280;18038;50.166;18.908;2022-10-16T04:17:16;98259.34;;;11.13;68.17
21401;BME280;18038;50.166;18.908;2022-10-16T04:20:24;98270.50;;;11.16;68.01
21401;BME280;18038;50.166;18.908;2022-10-16T04:23:30;98262.97;;;11.26;67.69
21401;BME280;18038;50.166;18.908;2022-10-16T04:26:37;98252.66;;;11.23;67.65
21401;BME280;18038;50.166;18.908;2022-10-16T04:29:43;98249.22;;;11.29;67.53
21401;BME280;18038;50.166;18.908;2022-10-16T04:32:48;98249.53;;;11.20;67.64
21401;BME280;18038;50.166;18.908;2022-10-16T04:36:01;98255.34;;;11.02;68.29
21401;BME280;18038;50.166;18.908;2022-10-16T04:39:08;98255.34;;;11.02;68.08
21401;BME280;18038;50.166;18.908;2022-10-16T04:42:14;98259.50;;;10.83;69.04
21401;BME280;18038;50.166;18.908;2022-10-16T04:45:19;98255.66;;;10.49;70.32
21401;BME280;18038;50.166;18.908;2022-10-16T04:48:25;98254.47;;;10.15;71.91
21401;BME280;18038;50.166;18.908;2022-10-16T04:51:33;98269.81;;;10.13;72.25
21401;BME280;18038;50.166;18.908;2022-10-16T04:54:39;98272.13;;;10.16;71.96
21401;BME280;18038;50.166;18.908;2022-10-16T04:57:47;98279.38;;;10.37;70.91
21401;BME280;18038;50.166;18.908;2022-10-16T05:00:53;98285.25;;;10.48;70.28
21401;BME280;18038;50.166;18.908;2022-10-16T05:03:58;98281.56;;;10.49;70.03
21401;BME280;18038;50.166;18.908;2022-10-16T05:07:06;98284.94;;;10.57;69.68
21401;BME280;18038;50.166;18.908;2022-10-16T05:10:12;98287.03;;;10.62;69.41
21401;BME280;18038;50.166;18.908;2022-10-16T05:13:18;98290.50;;;10.77;68.89
21401;BME280;18038;50.166;18.908;2022-10-16T05:16:25;98288.84;;;10.76;68.76
21401;BME280;18038;50.166;18.908;2022-10-16T05:19:31;98300.06;;;10.87;68.12
21401;BME280;18038;50.166;18.908;2022-10-16T05:22:39;98302.59;;;10.95;67.84
21401;BME280;18038;50.166;18.908;2022-10-16T05:25:52;98298.91;;;10.96;67.80
21401;BME280;18038;50.166;18.908;2022-10-16T05:29:00;98299.31;;;10.99;67.53
21401;BME280;18038;50.166;18.908;2022-10-16T05:32:06;98308.13;;;11.15;67.45
21401;BME280;18038;50.166;18.908;2022-10-16T05:35:11;98302.72;;;11.08;66.72
21401;BME280;18038;50.166;18.908;2022-10-16T05:38:20;98311.69;;;11.22;67.08
21401;BME280;18038;50.166;18.908;2022-10-16T05:41:25;98316.56;;;11.40;66.47
21401;BME280;18038;50.166;18.908;2022-10-16T05:44:31;98319.38;;;11.53;65.43
21401;BME280;18038;50.166;18.908;2022-10-16T05:47:37;98319.66;;;11.65;65.42
21401;BME280;18038;50.166;18.908;2022-10-16T05:50:45;98323.41;;;11.49;65.33
21401;BME280;18038;50.166;18.908;2022-10-16T05:53:53;98323.06;;;11.30;66.08
21401;BME280;18038;50.166;18.908;2022-10-16T05:56:59;98322.47;;;11.57;65.57
21401;BME280;18038;50.166;18.908;2022-10-16T06:00:06;98331.06;;;11.52;65.23
21401;BME280;18038;50.166;18.908;2022-10-16T06:03:15;98327.13;;;11.76;65.19
21401;BME280;18038;50.166;18.908;2022-10-16T06:06:23;98336.47;;;11.87;64.14
21401;BME280;18038;50.166;18.908;2022-10-16T06:09:34;98343.41;;;12.09;64.11
21401;BME280;18038;50.166;18.908;2022-10-16T06:12:40;98349.31;;;12.39;62.72
21401;BME280;18038;50.166;18.908;2022-10-16T06:15:46;98356.38;;;12.47;62.71
21401;BME280;18038;50.166;18.908;2022-10-16T06:18:54;98355.56;;;12.47;62.43
21401;BME280;18038;50.166;18.908;2022-10-16T06:22:10;98363.13;;;12.78;61.53
21401;BME280;18038;50.166;18.908;2022-10-16T06:25:19;98364.03;;;12.98;61.02
21401;BME280;18038;50.166;18.908;2022-10-16T06:28:25;98364.50;;;13.62;59.43
21401;BME280;18038;50.166;18.908;2022-10-16T06:31:31;98381.41;;;14.09;58.36
21401;BME280;18038;50.166;18.908;2022-10-16T06:34:43;98386.44;;;14.64;56.53
21401;BME280;18038;50.166;18.908;2022-10-16T06:37:49;98391.41;;;15.12;54.53
21401;BME280;18038;50.166;18.908;2022-10-16T06:41:01;98385.06;;;15.63;53.15
21401;BME280;18038;50.166;18.908;2022-10-16T06:44:08;98382.41;;;16.06;52.06
21401;BME280;18038;50.166;18.908;2022-10-16T06:47:20;98389.19;;;15.91;51.68
21401;BME280;18038;50.166;18.908;2022-10-16T06:51:00;98389.03;;;16.47;49.97
21401;BME280;18038;50.166;18.908;2022-10-16T06:54:07;98390.44;;;16.31;50.20
21401;BME280;18038;50.166;18.908;2022-10-16T06:57:15;98390.38;;;16.57;49.65
21401;BME280;18038;50.166;18.908;2022-10-16T07:00:21;98394.66;;;16.27;50.80
21401;BME280;18038;50.166;18.908;2022-10-16T07:03:27;98387.47;;;16.40;50.12
21401;BME280;18038;50.166;18.908;2022-10-16T07:06:33;98393.97;;;16.14;50.82
21401;BME280;18038;50.166;18.908;2022-10-16T07:09:40;98406.88;;;16.48;49.76
21401;BME280;18038;50.166;18.908;2022-10-16T07:12:48;98407.91;;;16.47;49.67
21401;BME280;18038;50.166;18.908;2022-10-16T07:15:56;98410.13;;;16.75;48.81
21401;BME280;18038;50.166;18.908;2022-10-16T07:19:03;98409.28;;;17.24;48.02
21401;BME280;18038;50.166;18.908;2022-10-16T07:22:09;98415.19;;;17.62;47.28
21401;BME280;18038;50.166;18.908;2022-10-16T07:25:15;98418.78;;;16.96;48.43
21401;BME280;18038;50.166;18.908;2022-10-16T07:28:23;98415.59;;;16.69;49.56
21401;BME280;18038;50.166;18.908;2022-10-16T07:31:29;98420.91;;;16.14;51.02
21401;BME280;18038;50.166;18.908;2022-10-16T07:34:35;98420.88;;;15.63;52.86
21401;BME280;18038;50.166;18.908;2022-10-16T07:37:44;98418.47;;;15.23;53.74
21401;BME280;18038;50.166;18.908;2022-10-16T07:40:56;98414.19;;;15.41;53.67
21401;BME280;18038;50.166;18.908;2022-10-16T07:44:05;98420.72;;;15.27;54.45
21401;BME280;18038;50.166;18.908;2022-10-16T07:47:11;98425.34;;;15.13;54.75
21401;BME280;18038;50.166;18.908;2022-10-16T07:50:20;98439.44;;;15.08;55.30
21401;BME280;18038;50.166;18.908;2022-10-16T07:53:36;98424.72;;;14.46;57.36
21401;BME280;18038;50.166;18.908;2022-10-16T07:56:42;98429.44;;;14.70;56.83
21401;BME280;18038;50.166;18.908;2022-10-16T07:59:50;98431.53;;;14.55;57.00
21401;BME280;18038;50.166;18.908;2022-10-16T08:02:56;98433.66;;;14.33;57.27
21401;BME280;18038;50.166;18.908;2022-10-16T08:06:11;98439.41;;;14.50;56.67
21401;BME280;18038;50.166;18.908;2022-10-16T08:09:17;98442.09;;;14.50;56.81
21401;BME280;18038;50.166;18.908;2022-10-16T08:12:22;98438.69;;;14.88;56.18
21401;BME280;18038;50.166;18.908;2022-10-16T08:15:31;98430.44;;;14.76;56.06
21401;BME280;18038;50.166;18.908;2022-10-16T08:18:37;98430.97;;;14.40;57.22
21401;BME280;18038;50.166;18.908;2022-10-16T08:21:49;98438.06;;;14.86;56.14
21401;BME280;18038;50.166;18.908;2022-10-16T08:24:58;98432.56;;;14.54;57.10
21401;BME280;18038;50.166;18.908;2022-10-16T08:28:06;98441.44;;;14.81;56.55
21401;BME280;18038;50.166;18.908;2022-10-16T08:31:16;98434.38;;;14.73;56.81
21401;BME280;18038;50.166;18.908;2022-10-16T08:34:22;98444.94;;;14.82;57.08
21401;BME280;18038;50.166;18.908;2022-10-16T08:37:29;98447.81;;;14.87;56.79
21401;BME280;18038;50.166;18.908;2022-10-16T08:40:37;98440.44;;;14.49;56.84
21401;BME280;18038;50.166;18.908;2022-10-16T08:44:01;98443.50;;;14.66;56.71
21401;BME280;18038;50.166;18.908;2022-10-16T08:47:45;98448.72;;;15.12;55.79
21401;BME280;18038;50.166;18.908;2022-10-16T08:51:02;98456.16;;;15.17;55.46
21401;BME280;18038;50.166;18.908;2022-10-16T08:54:22;98460.00;;;15.34;54.66
21401;BME280;18038;50.166;18.908;2022-10-16T08:57:36;98451.59;;;15.56;53.95
21401;BME280;18038;50.166;18.908;2022-10-16T09:00:44;98460.06;;;15.59;53.59
21401;BME280;18038;50.166;18.908;2022-10-16T09:08:09;98450.94;;;15.22;55.34
21401;BME280;18038;50.166;18.908;2022-10-16T09:11:38;98447.31;;;15.41;55.15
21401;BME280;18038;50.166;18.908;2022-10-16T09:15:14;98462.19;;;16.32;51.92
21401;BME280;18038;50.166;18.908;2022-10-16T09:18:35;98468.53;;;16.82;51.91
21401;BME280;18038;50.166;18.908;2022-10-16T09:21:56;98473.06;;;17.36;49.50
21401;BME280;18038;50.166;18.908;2022-10-16T09:25:12;98475.28;;;17.58;48.95
21401;BME280;18038;50.166;18.908;2022-10-16T09:28:22;98473.56;;;18.64;46.67
21401;BME280;18038;50.166;18.908;2022-10-16T09:31:29;98477.09;;;19.57;44.36
21401;BME280;18038;50.166;18.908;2022-10-16T09:34:37;98477.25;;;19.51;45.10
21401;BME280;18038;50.166;18.908;2022-10-16T09:37:54;98490.03;;;19.84;43.69
21401;BME280;18038;50.166;18.908;2022-10-16T09:41:04;98486.88;;;19.58;43.24
21401;BME280;18038;50.166;18.908;2022-10-16T09:44:27;98489.59;;;19.06;43.98
21401;BME280;18038;50.166;18.908;2022-10-16T09:47:44;98480.63;;;18.42;45.65
21401;BME280;18038;50.166;18.908;2022-10-16T09:50:57;98482.47;;;18.29;46.07
21401;BME280;18038;50.166;18.908;2022-10-16T09:54:16;98482.00;;;18.33;46.76
21401;BME280;18038;50.166;18.908;2022-10-16T09:57:25;98486.53;;;18.39;46.39
21401;BME280;18038;50.166;18.908;2022-10-16T10:00:33;98492.91;;;17.91;47.60
21401;BME280;18038;50.166;18.908;2022-10-16T10:03:41;98484.00;;;18.25;46.93
21401;BME280;18038;50.166;18.908;2022-10-16T10:06:52;98485.66;;;18.26;46.86
21401;BME280;18038;50.166;18.908;2022-10-16T10:10:05;98491.44;;;18.54;46.28
21401;BME280;18038;50.166;18.908;2022-10-16T10:13:25;98493.31;;;18.53;46.47
21401;BME280;18038;50.166;18.908;2022-10-16T10:16:32;98494.22;;;18.35;46.61
21401;BME280;18038;50.166;18.908;2022-10-16T10:19:45;98491.56;;;18.70;47.04
21401;BME280;18038;50.166;18.908;2022-10-16T10:22:53;98501.25;;;18.01;47.62
21401;BME280;18038;50.166;18.908;2022-10-16T10:26:09;98499.56;;;18.65;46.47
21401;BME280;18038;50.166;18.908;2022-10-16T10:29:32;98487.19;;;18.46;46.94
21401;BME280;18038;50.166;18.908;2022-10-16T10:33:09;98495.69;;;18.49;47.38
21401;BME280;18038;50.166;18.908;2022-10-16T10:36:39;98492.13;;;18.37;47.68
21401;BME280;18038;50.166;18.908;2022-10-16T10:39:55;98496.16;;;17.81;48.71
21401;BME280;18038;50.166;18.908;2022-10-16T10:43:29;98504.00;;;17.71;49.39
21401;BME280;18038;50.166;18.908;2022-10-16T10:46:51;98504.75;;;17.90;49.50
21401;BME280;18038;50.166;18.908;2022-10-16T10:50:14;98494.81;;;17.41;50.29
21401;BME280;18038;50.166;18.908;2022-10-16T10:53:40;98503.91;;;17.29;50.20
21401;BME280;18038;50.166;18.908;2022-10-16T10:56:58;98492.31;;;17.10;51.47
21401;BME280;18038;50.166;18.908;2022-10-16T11:00:23;98488.63;;;17.23;50.90
21401;BME280;18038;50.166;18.908;2022-10-16T11:03:55;98476.50;;;17.43;50.86
21401;BME280;18038;50.166;18.908;2022-10-16T11:07:31;98480.84;;;17.45;51.33
21401;BME280;18038;50.166;18.908;2022-10-16T11:10:47;98468.41;;;17.43;50.85
21401;BME280;18038;50.166;18.908;2022-10-16T11:14:04;98468.78;;;17.77;50.13
21401;BME280;18038;50.166;18.908;2022-10-16T11:17:25;98480.56;;;17.95;49.44
21401;BME280;18038;50.166;18.908;2022-10-16T11:20:42;98485.56;;;17.79;49.70
21401;BME280;18038;50.166;18.908;2022-10-16T11:23:59;98487.97;;;17.99;49.49
21401;BME280;18038;50.166;18.908;2022-10-16T11:27:17;98485.53;;;18.21;49.82
21401;BME280;18038;50.166;18.908;2022-10-16T11:30:28;98482.69;;;18.16;49.37
21401;BME280;18038;50.166;18.908;2022-10-16T11:33:43;98476.81;;;17.96;49.44
21401;BME280;18038;50.166;18.908;2022-10-16T11:36:58;98480.00;;;18.16;48.59
21401;BME280;18038;50.166;18.908;2022-10-16T11:40:23;98485.34;;;17.93;49.03
21401;BME280;18038;50.166;18.908;2022-10-16T11:43:38;98485.06;;;17.71;49.46
21401;BME280;18038;50.166;18.908;2022-10-16T11:46:53;98490.66;;;17.57;49.79
21401;BME280;18038;50.166;18.908;2022-10-16T11:50:32;98485.97;;;17.95;48.83
21401;BME280;18038;50.166;18.908;2022-10-16T11:53:50;98491.41;;;18.06;48.80
21401;BME280;18038;50.166;18.908;2022-10-16T11:57:12;98487.88;;;18.29;48.91
21401;BME280;18038;50.166;18.908;2022-10-16T12:00:27;98482.69;;;18.16;48.58
21401;BME280;18038;50.166;18.908;2022-10-16T12:03:42;98483.84;;;17.97;49.53
21401;BME280;18038;50.166;18.908;2022-10-16T12:07:02;98488.78;;;18.00;49.29
21401;BME280;18038;50.166;18.908;2022-10-16T12:10:11;98498.13;;;18.51;48.66
21401;BME280;18038;50.166;18.908;2022-10-16T12:13:31;98505.09;;;18.59;47.76
21401;BME280;18038;50.166;18.908;2022-10-16T12:16:39;98510.22;;;19.07;47.08
21401;BME280;18038;50.166;18.908;2022-10-16T12:20:12;98504.25;;;19.91;46.19
21401;BME280;18038;50.166;18.908;2022-10-16T12:23:28;98518.44;;;20.44;44.91
21401;BME280;18038;50.166;18.908;2022-10-16T12:26:39;98517.41;;;20.84;43.92
21401;BME280;18038;50.166;18.908;2022-10-16T12:29:55;98526.72;;;20.71;44.31
21401;BME280;18038;50.166;18.908;2022-10-16T12:33:05;98524.59;;;20.22;45.81
21401;BME280;18038;50.166;18.908;2022-10-16T12:36:30;98534.47;;;20.12;46.59
21401;BME280;18038;50.166;18.908;2022-10-16T12:39:41;98522.28;;;19.40;47.78
21401;BME280;18038;50.166;18.908;2022-10-16T12:42:47;98510.47;;;18.94;49.15
21401;BME280;18038;50.166;18.908;2022-10-16T12:46:01;98519.16;;;19.20;48.64
21401;BME280;18038;50.166;18.908;2022-10-16T12:49:30;98515.59;;;19.59;48.11
21401;BME280;18038;50.166;18.908;2022-10-16T12:52:39;98514.88;;;19.64;47.68
21401;BME280;18038;50.166;18.908;2022-10-16T12:55:59;98527.38;;;19.65;47.15
21401;BME280;18038;50.166;18.908;2022-10-16T12:59:22;98526.50;;;19.36;48.15
21401;BME280;18038;50.166;18.908;2022-10-16T13:02:58;98535.53;;;19.53;48.33
21401;BME280;18038;50.166;18.908;2022-10-16T13:06:42;98539.22;;;19.47;48.76
21401;BME280;18038;50.166;18.908;2022-10-16T13:10:06;98535.41;;;19.60;48.87
21401;BME280;18038;50.166;18.908;2022-10-16T13:13:45;98530.69;;;19.27;49.48
21401;BME280;18038;50.166;18.908;2022-10-16T13:17:14;98542.47;;;19.21;49.73
21401;BME280;18038;50.166;18.908;2022-10-16T13:20:35;98533.50;;;19.08;49.92
21401;BME280;18038;50.166;18.908;2022-10-16T13:23:55;98542.47;;;19.21;49.91
21401;BME280;18038;50.166;18.908;2022-10-16T13:27:13;98551.47;;;19.38;49.01
21401;BME280;18038;50.166;18.908;2022-10-16T13:30:36;98545.63;;;19.29;48.99
21401;BME280;18038;50.166;18.908;2022-10-16T13:33:48;98545.41;;;19.19;49.00
21401;BME280;18038;50.166;18.908;2022-10-16T13:36:57;98543.25;;;19.09;48.66
21401;BME280;18038;50.166;18.908;2022-10-16T13:40:19;98542.81;;;19.01;49.02
21401;BME280;18038;50.166;18.908;2022-10-16T13:43:31;98542.47;;;18.85;48.93
21401;BME280;18038;50.166;18.908;2022-10-16T13:46:42;98534.13;;;18.87;48.23
21401;BME280;18038;50.166;18.908;2022-10-16T13:49:59;98525.44;;;18.73;48.60
21401;BME280;18038;50.166;18.908;2022-10-16T13:53:09;98525.09;;;18.58;49.07
21401;BME280;18038;50.166;18.908;2022-10-16T13:56:21;98520.50;;;18.46;49.97
21401;BME280;18038;50.166;18.908;2022-10-16T13:59:34;98508.81;;;18.34;50.31
21401;BME280;18038;50.166;18.908;2022-10-16T14:02:44;98509.75;;;17.74;51.75
21401;BME280;18038;50.166;18.908;2022-10-16T14:06:00;98515.19;;;17.86;51.13
21401;BME280;18038;50.166;18.908;2022-10-16T14:09:19;98531.69;;;18.08;50.84
21401;BME280;18038;50.166;18.908;2022-10-16T14:12:29;98550.16;;;18.11;50.99
21401;BME280;18038;50.166;18.908;2022-10-16T14:15:37;98549.91;;;17.71;51.24
21401;BME280;18038;50.166;18.908;2022-10-16T14:18:55;98553.69;;;17.51;51.32
21401;BME280;18038;50.166;18.908;2022-10-16T14:22:20;98560.91;;;17.57;52.07
21401;BME280;18038;50.166;18.908;2022-10-16T14:25:32;98557.81;;;17.72;51.66
21401;BME280;18038;50.166;18.908;2022-10-16T14:28:39;98555.63;;;17.62;51.83
21401;BME280;18038;50.166;18.908;2022-10-16T14:31:55;98558.69;;;17.66;52.00
21401;BME280;18038;50.166;18.908;2022-10-16T14:35:22;98565.19;;;17.28;52.11
21401;BME280;18038;50.166;18.908;2022-10-16T14:38:31;98564.25;;;17.16;52.43
21401;BME280;18038;50.166;18.908;2022-10-16T14:41:43;98567.88;;;16.91;52.96
21401;BME280;18038;50.166;18.908;2022-10-16T14:44:56;98569.91;;;16.96;53.10
21401;BME280;18038;50.166;18.908;2022-10-16T14:48:06;98568.31;;;17.07;53.43
21401;BME280;18038;50.166;18.908;2022-10-16T14:51:26;98571.41;;;17.10;53.25
21401;BME280;18038;50.166;18.908;2022-10-16T14:54:31;98568.03;;;17.15;52.99
21401;BME280;18038;50.166;18.908;2022-10-16T14:57:39;98568.16;;;17.02;53.39
21401;BME280;18038;50.166;18.908;2022-10-16T15:00:46;98578.16;;;17.01;54.17
21401;BME280;18038;50.166;18.908;2022-10-16T15:03:52;98579.63;;;16.97;53.73
21401;BME280;18038;50.166;18.908;2022-10-16T15:07:01;98574.34;;;17.09;53.83
21401;BME280;18038;50.166;18.908;2022-10-16T15:10:07;98580.78;;;17.26;53.72
21401;BME280;18038;50.166;18.908;2022-10-16T15:13:14;98576.66;;;17.24;53.90
21401;BME280;18038;50.166;18.908;2022-10-16T15:16:20;98576.56;;;17.12;54.03
21401;BME280;18038;50.166;18.908;2022-10-16T15:19:25;98576.47;;;17.00;54.34
21401;BME280;18038;50.166;18.908;2022-10-16T15:22:34;98584.38;;;16.76;55.27
21401;BME280;18038;50.166;18.908;2022-10-16T15:25:43;98572.81;;;16.44;56.12
21401;BME280;18038;50.166;18.908;2022-10-16T15:28:49;98574.53;;;16.39;56.12
21401;BME280;18038;50.166;18.908;2022-10-16T15:31:55;98587.47;;;16.30;56.42
21401;BME280;18038;50.166;18.908;2022-10-16T15:35:01;98600.22;;;16.41;56.49
21401;BME280;18038;50.166;18.908;2022-10-16T15:38:12;98590.94;;;16.37;56.37
21401;BME280;18038;50.166;18.908;2022-10-16T15:41:18;98585.41;;;16.25;56.93
21401;BME280;18038;50.166;18.908;2022-10-16T15:44:24;98591.25;;;16.22;57.24
21401;BME280;18038;50.166;18.908;2022-10-16T15:47:32;98597.94;;;16.13;57.44
21401;BME280;18038;50.166;18.908;2022-10-16T15:50:40;98605.63;;;16.09;57.30
21401;BME280;18038;50.166;18.908;2022-10-16T15:53:49;98615.13;;;16.19;57.37
21401;BME280;18038;50.166;18.908;2022-10-16T15:56:56;98619.16;;;16.35;56.76
21401;BME280;18038;50.166;18.908;2022-10-16T16:00:11;98621.94;;;16.21;57.35
21401;BME280;18038;50.166;18.908;2022-10-16T16:03:19;98618.53;;;16.01;58.14
21401;BME280;18038;50.166;18.908;2022-10-16T16:06:25;98621.69;;;15.91;58.31
21401;BME280;18038;50.166;18.908;2022-10-16T16:09:34;98630.03;;;15.83;58.70
21401;BME280;18038;50.166;18.908;2022-10-16T16:12:40;98629.22;;;15.82;58.51
21401;BME280;18038;50.166;18.908;2022-10-16T16:15:45;98623.44;;;15.79;58.70
21401;BME280;18038;50.166;18.908;2022-10-16T16:18:52;98628.41;;;15.68;58.57
21401;BME280;18038;50.166;18.908;2022-10-16T16:21:58;98624.28;;;15.59;59.12
21401;BME280;18038;50.166;18.908;2022-10-16T16:25:08;98627.47;;;15.43;59.06
21401;BME280;18038;50.166;18.908;2022-10-16T16:28:14;98632.28;;;15.28;59.47
21401;BME280;18038;50.166;18.908;2022-10-16T16:31:20;98630.63;;;15.27;59.96
21401;BME280;18038;50.166;18.908;2022-10-16T16:34:29;98641.63;;;15.18;60.16
21401;BME280;18038;50.166;18.908;2022-10-16T16:37:37;98644.31;;;15.18;60.02
21401;BME280;18038;50.166;18.908;2022-10-16T16:40:51;98660.25;;;15.13;59.32
21401;BME280;18038;50.166;18.908;2022-10-16T16:44:01;98663.13;;;15.12;59.74
21401;BME280;18038;50.166;18.908;2022-10-16T16:47:15;98668.75;;;15.10;59.22